Terminal Aerodrome Forecast
Issued by NWS Paducah, KY

Home | Current Version | Previous Version | Text Only | Print | Product List | Glossary On
Versions: 1 2 3 4 5 6 7 8 9 10 11 12
550
FTUS43 KPAH 240520
TAFPAH
TAF
KPAH 240520Z 2406/2506 17003KT P6SM BKN250
     FM241100 17003KT P6SM VCSH BKN060
     FM241600 18006KT P6SM BKN050
     FM250000 17003KT P6SM SCT050 BKN250=

USA.gov is the U.S. government's official web portal to all federal, state and local government web resources and services.